Tiempo atmosférico en la estación meteorológica de Orozko, Bizkaia (270 m.)



Fecha
DESCASC
Temp. máxima en grados centígrados (hora)
DESCASC
Temp. mínima en grados centígrados (hora)
DESCASC
Temp. media en grados centígrados
DESCASC
Racha de viento máxima en m/sg (hora)
DESCASC
Velocidad máxima media en intervalos de 10 minutos(hora)
DESCASC
Precipitaciones diarias en mm
DESCASC
Precipitaciones de 00:00 a 06:00 en mm
DESCASC
Precipitaciones de 06:00 a 12:00 en mm
DESCASC
Precipitaciones de 12:00 a 18:00 en mm
DESCASC
Precipitaciones de 18:00 a 24:00 en mm
DESCASC
02-07-2020 16.6 (16:00) 14.1 (23:40) 15.4 3.33 (17:20) 1.39 (17:20) 2.2 0.6 1.4 0.2 0
01-07-2020 22.9 (15:00) 14.4 (07:30) 18.6 5 (18:50) 1.67 (18:50) 2.4 0 0 0 2.4
30-06-2020 30.4 (16:40) 12 (00:00) 21.2 5 (17:10) 1.94 (08:00) 0 0 0 0 0
29-06-2020 18.9 (00:00) 15.8 (00:00) 17.3 3.33 (13:00) 1.39 (04:10) 2 1.2 0.8 0 0
28-06-2020 28.8 (16:00) 16.3 (00:00) 22.5 6.11 (18:10) 2.22 (18:20) 0.2 0 0.2 0 0
27-06-2020 29.4 (17:00) 10.7 (00:00) 20 4.44 (16:40) 1.67 (12:30) 0 0 0 0 0
26-06-2020 18.3 (14:50) 15.3 (00:00) 16.8 3.89 (17:30) 2.22 (17:30) 1.8 0.4 0.2 1.2 0
25-06-2020 25 (12:00) 15.8 (00:00) 20.4 6.67 (13:40) 2.5 (10:00) 0.2 0 0 0 0.2
24-06-2020 36.6 (17:00) 16.6 (00:00) 26.6 10.28 (18:30) 2.78 (18:30) 0 0 0 0 0
23-06-2020 35.6 (17:00) 11.3 (00:00) 23.4 3.89 (19:10) 1.39 (18:50) 0 0 0 0 0
22-06-2020 29.2 (17:50) 14.2 (00:00) 21.7 3.89 (18:30) 1.39 (14:30) 0 0 0 0 0
21-06-2020 26.6 (15:50) 10.2 (00:00) 18.4 5 (16:00) 1.94 (16:40) 0 0 0 0 0
20-06-2020 27.2 (16:10) 9 (00:00) 18.1 5.28 (17:40) 1.67 (16:40) 0 0 0 0 0
19-06-2020 21.1 (14:50) 9.1 (00:00) 15.1 3.89 (15:20) 1.67 (15:20) 0 0 0 0 0
18-06-2020 20.9 (15:10) 11.8 (00:00) 16.3 6.39 (17:10) 1.94 (17:40) 3.4 3.2 0 0.2 0
17-06-2020 20.2 (14:00) 11 (00:00) 15.6 6.11 (14:10) 2.78 (13:00) 1.2 0 0.2 0.8 0.2
16-06-2020 19.3 (12:00) 12.6 (00:00) 15.9 3.89 (14:00) 1.67 (13:00) 8.2 0 0 8.2 0
15-06-2020 22 (14:20) 12.6 (00:00) 17.3 5 (17:00) 1.67 (18:00) 0 0 0 0 0
14-06-2020 22 (15:00) 10.3 (00:00) 16.2 6.11 (15:40) 1.94 (15:20) 0 0 0 0 0
13-06-2020 21 (13:40) 9.2 (00:00) 15.1 5.28 (17:00) 1.94 (16:10) 1.4 0.2 0 0 1.2
12-06-2020 21.1 (14:50) 6.6 (00:00) 13.9 11.39 (06:30) 4.44 (06:50) 1.4 0 0 1 0.4
11-06-2020 19.6 (13:10) 8.8 (00:00) 14.2 8.06 (15:40) 3.06 (14:00) 20.2 0 0.4 11 8.8
10-06-2020 18.5 (14:00) 10.4 (00:00) 14.4 3.89 (15:20) 1.39 (16:50) 0 0 0 0 0
09-06-2020 17.5 (17:50) 10 (00:00) 13.8 4.17 (15:30) 2.22 (17:50) 0.6 0.6 0 0 0
08-06-2020 16.5 (17:40) 9.8 (06:40) 13.2 6.11 (12:30) 2.22 (13:20) 2.4 0.2 0.6 1 0.6
07-06-2020 15.5 (18:20) 10.5 (00:00) 13 4.72 (00:40) 1.67 (18:20) 4.4 2 2.4 0 0
06-06-2020 18.3 (11:40) 13.8 (00:00) 16 3.89 (14:10) 1.11 (14:10) 4 0 0 0 4
05-06-2020 22.2 (15:30) 11.8 (00:00) 17 6.11 (16:50) 1.94 (16:50) 0 0 0 0 0
04-06-2020 16.4 (13:10) 12 (00:00) 14.2 8.89 (14:10) 3.33 (14:10) 7.2 0 0.8 3.4 3

Gráficas

Temp. máximas Temp. mínimas Temp. medias Precipitaciones Rachas de viento máximas Velocidades máximas media en intervalos de 10 minutos

Datos horarios

Fecha y hora oficial Temperatura (ºC) Velocidad del viento (km/h) Dirección del viento Racha (km/h) Dirección de racha Precipitación (mm) Presión (hPa) Tendencia (hPa) Humedad (%)
2020-07-03 23:00:00 14 3 Sur 6 Sur 0 -- -- 84
2020-07-03 22:00:00 16.2 3 Sudoeste 10 Sudeste 0 -- -- 78
2020-07-03 21:00:00 17.7 4 Este 14 Este 0 -- -- 68
2020-07-03 20:00:00 19.8 4 Sudeste 12 Sudoeste 0 -- -- 63
2020-07-03 19:00:00 19.6 4 Sudeste 18 Nordeste 0 -- -- 64
2020-07-03 18:00:00 21 3 Sur 13 Sudeste 0 -- -- 64
2020-07-03 17:00:00 20.4 4 Oeste 15 Sudoeste 0 -- -- 61
2020-07-03 16:00:00 20.4 4 Sur 17 Sudoeste 0 -- -- 65
2020-07-03 15:00:00 17.1 4 Sudoeste 13 Sur 0 -- -- 71
2020-07-03 14:00:00 18.4 5 Sur 15 Sur 0 -- -- 74
2020-07-03 13:00:00 17.9 3 Sudoeste 12 Sudoeste 0 -- -- 73
2020-07-03 12:00:00 18.7 4 Sudoeste 12 Sudoeste 0 -- -- 66
2020-07-03 11:00:00 15.6 3 Sur 10 Sur 0 -- -- 87
2020-07-03 10:00:00 14.9 2 Sudeste 6 Sudeste 0 -- -- 95
2020-07-03 09:00:00 13.8 0 Calma 6 Sur 0 -- -- 98
2020-07-03 08:00:00 13.4 3 Sur 6 Sur 0 -- -- 98
2020-07-03 07:00:00 13.1 0 Calma 5 Sudoeste 0 -- -- 98
2020-07-03 06:00:00 13.2 0 Calma 4 Oeste 0 -- -- 97
2020-07-03 05:00:00 13.4 0 Calma 4 Sur 0 -- -- 97
2020-07-03 04:00:00 13.5 0 Calma 3 Sudoeste 0.2 -- -- 97
2020-07-03 03:00:00 13.7 0 Calma 3 Oeste 0 -- -- 96
2020-07-03 02:00:00 13.8 0 Calma 4 Sur 0 -- -- 95
2020-07-03 01:00:00 14 0 Calma 5 Sudoeste 0 -- -- 95
2020-07-03 00:00:00 14.1 0 Calma 3 Sudoeste 0 -- -- 94
2020-07-02 23:00:00 14.3 0 Calma 3 Sudoeste 0 -- -- 92
2020-07-02 22:00:00 14.7 0 Calma 10 Nordeste 0 -- -- 89
2020-07-02 21:00:00 15.4 3 Nordeste 10 Nordeste 0 -- -- 81
2020-07-02 20:00:00 15.7 3 Nordeste 11 Nordeste 0 -- -- 82
2020-07-02 19:00:00 16.3 0 Calma 6 Sudoeste 0 -- -- 81
2020-07-02 18:00:00 16.1 2 Sur 12 Nordeste 0 -- -- 82
2020-07-02 17:00:00 16.4 0 Calma 7 Oeste 0 -- -- 88
2020-07-02 16:00:00 16.6 4 Sudoeste 10 Sudoeste 0 -- -- 88
2020-07-02 15:00:00 15.9 0 Calma 9 Norte 0 -- -- 91
2020-07-02 14:00:00 15.9 4 Noroeste 10 Nordeste 0 -- -- 89
2020-07-02 13:00:00 16.3 2 Este 6 Nordeste 0.2 -- -- 94
2020-07-02 12:00:00 15.7 0 Calma 5 Nordeste 0.2 -- -- 96
2020-07-02 11:00:00 15.3 2 Norte 8 Noroeste 0 -- -- 98
2020-07-02 10:00:00 15.3 0 Calma 0 Calma 0.4 -- -- 98
2020-07-02 09:00:00 15.1 0 Calma -- -- 0.2 -- -- 98
2020-07-02 08:00:00 14.7 0 Calma 3 Oeste 0.2 -- -- 98
2020-07-02 07:00:00 14.6 0 Calma 0 Calma 0.4 -- -- 97
2020-07-02 06:00:00 14.7 0 Calma 4 Sudoeste 0.2 -- -- 97
2020-07-02 05:00:00 14.8 0 Calma 7 Sudoeste 0 -- -- 97
2020-07-02 04:00:00 15 2 Sudoeste 7 Nordeste 0 -- -- 97
2020-07-02 03:00:00 15.3 0 Calma 4 Sur 0.2 -- -- 97
2020-07-02 02:00:00 15.4 3 Sudoeste 7 Oeste 0 -- -- 96
2020-07-02 01:00:00 15.7 4 Sudoeste 9 Sur 0.2 -- -- 95
2020-07-02 00:00:00 16.1 3 Sur 8 Sur 0.6 -- -- 95
2020-07-01 23:00:00 16.4 2 Norte 11 Norte 0.2 -- -- 94
2020-07-01 22:00:00 17.1 2 Sudoeste 10 Nordeste 1 -- -- 94
2020-07-01 21:00:00 17.8 0 Calma 5 Sur 0.4 -- -- 93
2020-07-01 20:00:00 18.1 0 Calma 12 Este 0.2 -- -- 91
2020-07-01 19:00:00 18.8 3 Nordeste 18 Nordeste 0 -- -- 88
2020-07-01 18:00:00 20.2 4 Nordeste 12 Norte 0 -- -- 79
2020-07-01 17:00:00 21.2 3 Sudeste 12 Nordeste 0 -- -- 72
2020-07-01 16:00:00 22.8 3 Sur 11 Este 0 -- -- 68
2020-07-01 15:00:00 22.9 3 Sur 13 Sur 0 -- -- 69
2020-07-01 14:00:00 21.9 3 Sudeste 9 Sur 0 -- -- 71
2020-07-01 13:00:00 21.1 2 Este 9 Nordeste 0 -- -- 71
2020-07-01 12:00:00 20.4 2 Norte 6 Norte 0 -- -- 74
2020-07-01 11:00:00 19.6 0 Calma 4 Nordeste 0 -- -- 71
2020-07-01 10:00:00 17.4 0 Calma 3 Nordeste 0 -- -- 85
2020-07-01 09:00:00 15.7 0 Calma 4 Sudoeste 0 -- -- 93
2020-07-01 08:00:00 14.6 0 Calma 7 Sur 0 -- -- 93
2020-07-01 07:00:00 14.6 0 Calma 8 Sur 0 -- -- 91
2020-07-01 06:00:00 15.1 0 Calma 6 Sur 0 -- -- 93
2020-07-01 05:00:00 15.4 0 Calma 4 Sudoeste 0 -- -- 92
2020-07-01 04:00:00 15.3 0 Calma 5 Sur 0 -- -- 92
2020-07-01 03:00:00 15.4 2 Sur 9 Sur 0 -- -- 90
2020-07-01 02:00:00 16.2 3 Sur 10 Sur 0 -- -- 87
2020-07-01 01:00:00 16.9 0 Calma 5 Sudoeste 0 -- -- 85
2020-07-01 00:00:00 17.5 0 Calma 5 Sur 0 -- -- 81
2020-06-30 23:00:00 18.9 2 Sudoeste 6 Sur 0 -- -- 73
2020-06-30 22:00:00 20.9 4 Sur 10 Este 0 -- -- 61
2020-06-30 21:00:00 23.6 0 Calma 10 Sudeste 0 -- -- 53
2020-06-30 20:00:00 25.3 3 Este 13 Nordeste 0 -- -- 54
2020-06-30 19:00:00 27.1 5 Este 15 Sudeste 0 -- -- 52
2020-06-30 18:00:00 29.3 4 Este 18 Este 0 -- -- 47
2020-06-30 17:00:00 30.2 4 Sudeste 15 Sudeste 0 -- -- 47
2020-06-30 16:00:00 29.8 5 Sudeste 13 Sur 0 -- -- 43
2020-06-30 15:00:00 29 2 Sudeste 14 Nordeste 0 -- -- 45
2020-06-30 14:00:00 27.8 3 Este 9 Este 0 -- -- 51
2020-06-30 13:00:00 26.1 2 Nordeste 7 Noroeste 0 -- -- 46
2020-06-30 12:00:00 24.2 2 Sudoeste 6 Noroeste 0 -- -- 42
2020-06-30 11:00:00 21.6 0 Calma 5 Noroeste 0 -- -- 57
2020-06-30 10:00:00 17.6 0 Calma 8 Sur 0 -- -- 81
2020-06-30 09:00:00 13.4 6 Sur 11 Sur 0 -- -- 94
2020-06-30 08:00:00 12 7 Sur 12 Sur 0 -- -- 95
2020-06-30 07:00:00 12.2 0 Calma 5 Sur 0 -- -- 95
2020-06-30 06:00:00 12.8 3 Sur 6 Sur 0 -- -- 94
2020-06-30 05:00:00 13.5 3 Sur 9 Sur 0 -- -- 93
2020-06-30 04:00:00 14.6 0 Calma 6 Sur 0 -- -- 91
2020-06-30 03:00:00 15.6 2 Sur 8 Sur 0 -- -- 94
2020-06-30 02:00:00 15.7 0 Calma 0 Calma 0 -- -- 94
2020-06-30 01:00:00 15.8 0 Calma 0 Calma 0 -- -- 92
2020-06-30 00:00:00 16 0 Calma 4 Sudoeste 0 -- -- 91
2020-06-29 23:00:00 16.4 2 Sudoeste 5 Sudoeste 0 -- -- 89
2020-06-29 22:00:00 17.2 0 Calma 4 Sur 0 -- -- 86
2020-06-29 21:00:00 17.7 0 Calma 6 Nordeste 0 -- -- 84
2020-06-29 20:00:00 18.1 0 Calma 8 Sudeste 0 -- -- 83
2020-06-29 19:00:00 17.7 3 Sudeste 9 Este 0 -- -- 85
2020-06-29 18:00:00 17.7 2 Este 8 Este 0 -- -- 86
2020-06-29 17:00:00 17.7 0 Calma 11 Sudeste 0 -- -- 87
2020-06-29 16:00:00 17.5 0 Calma 10 Este 0 -- -- 86
2020-06-29 15:00:00 18.4 0 Calma 8 Sudeste 0 -- -- 86
2020-06-29 14:00:00 17.7 3 Sudeste 8 Sudeste 0 -- -- 88
2020-06-29 13:00:00 17.6 4 Este 12 Este 0 -- -- 87
2020-06-29 12:00:00 17.4 3 Sudoeste 6 Sudeste 0 -- -- 89
2020-06-29 11:00:00 16.7 2 Oeste 6 Sur 0.2 -- -- 93
2020-06-29 10:00:00 16.2 0 Calma 3 Oeste 0.2 -- -- 96
2020-06-29 09:00:00 15.8 0 Calma 5 Nordeste 0 -- -- 96
2020-06-29 08:00:00 16 0 Calma 4 Oeste 0.2 -- -- 97
2020-06-29 07:00:00 15.9 0 Calma 4 Sudoeste 0.2 -- -- 95
2020-06-29 06:00:00 16.1 2 Sudoeste 7 Oeste 0.2 -- -- 95
2020-06-29 05:00:00 16.4 4 Sudoeste 11 Sudeste 0.2 -- -- 93
2020-06-29 04:00:00 17.2 4 Sudoeste 9 Sudoeste 0.6 -- -- 93
2020-06-29 03:00:00 17.7 0 Calma 0 Calma 0.2 -- -- 92
2020-06-29 02:00:00 18.1 0 Calma 0 Calma 0 -- -- 90
2020-06-29 01:00:00 18.5 0 Calma 4 Sudoeste 0 -- -- 84
2020-06-29 00:00:00 18.9 3 Sur 8 Sur 0 -- -- 82
2020-06-28 23:00:00 19.3 0 Calma 7 Sur 0 -- -- 79
2020-06-28 22:00:00 19.9 2 Sur 9 Sudoeste 0 -- -- 76
2020-06-28 21:00:00 20.3 4 Sur 18 Sur 0 -- -- 72
2020-06-28 20:00:00 21.1 6 Sudeste 17 Sudeste 0 -- -- 69
2020-06-28 19:00:00 22.3 5 Oeste 22 Sudeste 0 -- -- 66
2020-06-28 18:00:00 25.4 3 Este 20 Sur 0 -- -- 57
2020-06-28 17:00:00 27.5 5 Este 19 Este 0 -- -- 54
2020-06-28 16:00:00 28.8 4 Sudeste 14 Sur 0 -- -- 51
2020-06-28 15:00:00 27.6 3 Nordeste 13 Este 0 -- -- 51
2020-06-28 14:00:00 26.4 4 Este 12 Nordeste 0 -- -- 50
2020-06-28 13:00:00 24.7 4 Nordeste 9 Norte 0 -- -- 62
2020-06-28 12:00:00 22.1 3 Nordeste 10 Norte 0 -- -- 71
2020-06-28 11:00:00 18.5 0 Calma 8 Norte 0 -- -- 91
2020-06-28 10:00:00 17.5 0 Calma 4 Este 0 -- -- 93
2020-06-28 09:00:00 17.2 0 Calma 4 Sur 0 -- -- 96
2020-06-28 08:00:00 16.5 0 Calma 4 Sur 0.2 -- -- 95
2020-06-28 07:00:00 16.3 0 Calma 0 Calma 0 -- -- 95
2020-06-28 06:00:00 16.4 0 Calma 4 Sur 0 -- -- 94
2020-06-28 05:00:00 16.7 0 Calma 3 Sur 0 -- -- 93
2020-06-28 04:00:00 17.1 0 Calma 5 Este 0 -- -- 90
2020-06-28 03:00:00 17.5 0 Calma 6 Este 0 -- -- 87
2020-06-28 02:00:00 17.8 0 Calma 9 Sur 0 -- -- 85
2020-06-28 01:00:00 18.1 3 Sudeste 10 Este 0 -- -- 83
2020-06-28 00:00:00 18.7 2 Este 12 Este 0 -- -- 83
2020-06-27 23:00:00 19.4 2 Sudeste 15 Sudeste 0 -- -- 80
2020-06-27 22:00:00 21 4 Sur 10 Sudeste 0 -- -- 73
2020-06-27 21:00:00 23 2 Nordeste 13 Nordeste 0 -- -- 58
2020-06-27 20:00:00 25.1 2 Noroeste 12 Nordeste 0 -- -- 54
2020-06-27 19:00:00 26.8 4 Sudeste 13 Sudeste 0 -- -- 50
2020-06-27 18:00:00 27.2 3 Sur 13 Sudeste 0 -- -- 53
2020-06-27 17:00:00 29.4 4 Sudeste 16 Nordeste 0 -- -- 48
2020-06-27 16:00:00 27.7 2 Este 10 Este 0 -- -- 51
2020-06-27 15:00:00 26.4 3 Este 9 Este 0 -- -- 53
2020-06-27 14:00:00 26.4 3 Sudeste 11 Nordeste 0 -- -- 53
2020-06-27 13:00:00 26.1 3 Este 14 Nordeste 0 -- -- 53
2020-06-27 12:00:00 24.4 3 Norte 9 Noroeste 0 -- -- 64
2020-06-27 11:00:00 21 3 Norte 8 Norte 0 -- -- 76
2020-06-27 10:00:00 16.8 2 Sudoeste 4 Oeste 0 -- -- 95
2020-06-27 09:00:00 13 2 Sur 5 Sur 0 -- -- 99
2020-06-27 08:00:00 11.1 0 Calma 5 Sur 0 -- -- 98
2020-06-27 07:00:00 10.7 0 Calma 4 Sur 0 -- -- 97
2020-06-27 06:00:00 11 0 Calma 7 Sudoeste 0 -- -- 96
2020-06-27 05:00:00 11.7 3 Sur 5 Sur 0 -- -- 95
2020-06-27 04:00:00 12.7 0 Calma 9 Sur 0 -- -- 95
2020-06-27 03:00:00 13.7 5 Sur 9 Sur 0 -- -- 96
2020-06-27 02:00:00 14.9 3 Sudoeste 8 Sur 0 -- -- 97
2020-06-27 01:00:00 15.3 0 Calma 4 Sur 0 -- -- 97
2020-06-27 00:00:00 15.3 0 Calma 5 Sudeste 0 -- -- 96
2020-06-26 23:00:00 15.4 0 Calma 2 Sur 0 -- -- 95
2020-06-26 22:00:00 16 0 Calma 9 Sudoeste 0 -- -- 95
2020-06-26 21:00:00 16.5 2 Oeste 8 Sur 0 -- -- 94
2020-06-26 20:00:00 16.7 2 Sur 8 Sudoeste 0 -- -- 93
2020-06-26 19:00:00 17.2 2 Este 10 Nordeste 0 -- -- 92
2020-06-26 18:00:00 18 3 Sudeste 14 Sudoeste 0.8 -- -- 92
2020-06-26 17:00:00 17 3 Oeste 8 Noroeste 0.4 -- -- 93
2020-06-26 16:00:00 17.4 0 Calma 11 Sur 0 -- -- 91
2020-06-26 15:00:00 18 4 Este 12 Sudeste 0 -- -- 88
2020-06-26 14:00:00 18 3 Sudeste 10 Este 0 -- -- 88
2020-06-26 13:00:00 17.5 2 Oeste 5 Oeste 0 -- -- 91
2020-06-26 12:00:00 16.9 0 Calma 3 Norte 0 -- -- 95
2020-06-26 11:00:00 16.4 0 Calma 5 Nordeste 0 -- -- 96
2020-06-26 10:00:00 16.2 0 Calma 5 Sudoeste 0 -- -- 97
2020-06-26 09:00:00 15.9 0 Calma 2 Sudeste 0.2 -- -- 97
2020-06-26 08:00:00 15.7 0 Calma 2 Sur 0 -- -- 97
2020-06-26 07:00:00 15.5 0 Calma 2 Sur 0 -- -- 97
2020-06-26 06:00:00 15.6 0 Calma 4 Sudoeste 0 -- -- 96
2020-06-26 05:00:00 15.8 3 Sudoeste 12 Sur 0 -- -- 96
2020-06-26 04:00:00 15.9 4 Sur 11 Sur 0.2 -- -- 95
2020-06-26 03:00:00 16.2 3 Sur 8 Sur 0 -- -- 96
2020-06-26 02:00:00 16.5 2 Sudeste 8 Sudeste 0 -- -- 96
2020-06-26 01:00:00 16.6 0 Calma 5 Sur 0.2 -- -- 95
2020-06-26 00:00:00 16.7 0 Calma 4 Nordeste 0 -- -- 94
2020-06-25 23:00:00 16.9 0 Calma 9 Sur 0 -- -- 93
2020-06-25 22:00:00 17.2 3 Sur 10 Sur 0 -- -- 92
2020-06-25 21:00:00 17.6 0 Calma 20 Sur 0 -- -- 91
2020-06-25 20:00:00 18.7 5 Sur 15 Este 0.2 -- -- 87
2020-06-25 19:00:00 21 0 Calma 10 Norte 0 -- -- 84
2020-06-25 18:00:00 21.8 2 Nordeste 12 Nordeste 0 -- -- 82
2020-06-25 17:00:00 21.3 2 Nordeste 6 Este 0 -- -- 82
2020-06-25 16:00:00 21.4 0 Calma 9 Sur 0 -- -- 81
2020-06-25 15:00:00 22.6 4 Este 20 Nordeste 0 -- -- 76
2020-06-25 14:00:00 24 7 Sudeste 24 Sur 0 -- -- 74
2020-06-25 13:00:00 24 3 Este 10 Noroeste 0 -- -- 77
2020-06-25 12:00:00 25 3 Sudoeste 9 Sur 0 -- -- 69
2020-06-25 11:00:00 22.8 3 Sudeste 17 Nordeste 0 -- -- 74
2020-06-25 10:00:00 20.8 9 Norte 22 Norte 0 -- -- 80
2020-06-25 09:00:00 19.2 2 Oeste 10 Noroeste 0 -- -- 86
2020-06-25 08:00:00 17.4 2 Sudeste 8 Sudeste 0 -- -- 92
2020-06-25 07:00:00 16.2 0 Calma 9 Sudoeste 0 -- -- 90
2020-06-25 06:00:00 16.2 3 Sur 7 Sudoeste 0 -- -- 90
2020-06-25 05:00:00 16 0 Calma 7 Sur 0 -- -- 90
2020-06-25 04:00:00 15.8 2 Sudoeste 8 Sur 0 -- -- 90
2020-06-25 03:00:00 16.1 3 Sur 8 Sur 0 -- -- 89
2020-06-25 02:00:00 16.8 0 Calma 5 Sudoeste 0 -- -- 89
2020-06-25 01:00:00 18 2 Sudoeste 6 Sur 0 -- -- 89
2020-06-25 00:00:00 18.9 0 Calma 17 Sudoeste 0 -- -- 88
2020-06-24 23:00:00 19.4 0 Calma 18 Sudoeste 0 -- -- 85
2020-06-24 22:00:00 20.3 3 Sur 17 Sur 0 -- -- 82
2020-06-24 21:00:00 22.8 6 Sudeste 22 Sudeste 0 -- -- 72
2020-06-24 20:00:00 27.5 0 Calma 5 Noroeste 0 -- -- 63
2020-06-24 19:00:00 29.7 2 Norte 37 Noroeste 0 -- -- 50
2020-06-24 18:00:00 34.8 4 Sudeste 10 Este 0 -- -- 44
2020-06-24 17:00:00 36.6 4 Sudoeste 10 Sudoeste 0 -- -- 33
2020-06-24 16:00:00 34.8 4 Este 12 Sur 0 -- -- 36
2020-06-24 15:00:00 34.2 5 Sur 18 Sudoeste 0 -- -- 37
2020-06-24 14:00:00 33.6 5 Sur 14 Sudoeste 0 -- -- 36
2020-06-24 13:00:00 32.4 3 Sur 7 Este 0 -- -- 47
2020-06-24 12:00:00 30.8 2 Nordeste 9 Oeste 0 -- -- 52
2020-06-24 11:00:00 27.3 2 Norte 8 Norte 0 -- -- 60
2020-06-24 10:00:00 23.9 4 Sudoeste 12 Sudoeste 0 -- -- 69
2020-06-24 09:00:00 19.6 3 Sudeste 10 Sur 0 -- -- 88
2020-06-24 08:00:00 17.4 0 Calma 6 Sur 0 -- -- 90
2020-06-24 07:00:00 16.6 2 Sur 6 Sudoeste 0 -- -- 92
2020-06-24 06:00:00 17.1 2 Sur 7 Sudoeste 0 -- -- 92
2020-06-24 05:00:00 17.6 3 Sur 8 Sudoeste 0 -- -- 93
2020-06-24 04:00:00 18 2 Sur 8 Sudoeste 0 -- -- 93
2020-06-24 03:00:00 18.4 2 Sur 7 Sur 0 -- -- 91
2020-06-24 02:00:00 18.9 2 Sur 7 Sudoeste 0 -- -- 90
2020-06-24 01:00:00 19.6 3 Sur 5 Sur 0 -- -- 86
2020-06-24 00:00:00 20.8 2 Sudoeste 7 Sur 0 -- -- 82
2020-06-23 23:00:00 22.4 3 Sur 6 Sur 0 -- -- 79
2020-06-23 22:00:00 25 0 Calma 6 Sur 0 -- -- 73
2020-06-23 21:00:00 28.1 0 Calma 7 Sudeste 0 -- -- 61
2020-06-23 20:00:00 30.4 3 Sudeste 14 Sudeste 0 -- -- 53
2020-06-23 19:00:00 32.2 4 Este 11 Este 0 -- -- 46
2020-06-23 18:00:00 35.1 3 Sudeste 12 Este 0 -- -- 43
2020-06-23 17:00:00 35.6 4 Sudeste 10 Sur 0 -- -- 40
2020-06-23 16:00:00 35.2 2 Sudoeste 9 Sur 0 -- -- 34
2020-06-23 15:00:00 33.4 4 Sur 8 Sur 0 -- -- 37
2020-06-23 14:00:00 31.5 0 Calma 6 Norte 0 -- -- 43
2020-06-23 13:00:00 29.3 2 Nordeste 6 Nordeste 0 -- -- 45
2020-06-23 12:00:00 26.4 0 Calma 5 Oeste 0 -- -- 51
2020-06-23 11:00:00 23.1 0 Calma 4 Sudeste 0 -- -- 62
2020-06-23 10:00:00 18.5 0 Calma 2 Sudoeste 0 -- -- 81
2020-06-23 09:00:00 13.5 0 Calma 3 Sudoeste 0 -- -- 97
2020-06-23 08:00:00 11.8 0 Calma 6 Sudoeste 0 -- -- 96
2020-06-23 07:00:00 11.3 0 Calma 7 Sudoeste 0 -- -- 95
2020-06-23 06:00:00 11.6 3 Sur 5 Sudoeste 0 -- -- 94
2020-06-23 05:00:00 12 0 Calma 6 Sudoeste 0 -- -- 93
2020-06-23 04:00:00 12.5 2 Sur 6 Sur 0 -- -- 93
2020-06-23 03:00:00 13 0 Calma 5 Sur 0 -- -- 91
2020-06-23 02:00:00 13.8 0 Calma 4 Sur 0 -- -- 89
2020-06-23 01:00:00 14.9 2 Sur 6 Sur 0 -- -- 87
2020-06-23 00:00:00 16.3 2 Sur 7 Sur 0 -- -- 80
2020-06-22 23:00:00 18.2 0 Calma 8 Sur 0 -- -- 81
2020-06-22 22:00:00 20.6 0 Calma 8 Este 0 -- -- 73
2020-06-22 21:00:00 23.3 0 Calma 9 Este 0 -- -- 63
2020-06-22 20:00:00 25.2 3 Sudeste 10 Este 0 -- -- 59
2020-06-22 19:00:00 26.5 5 Sudeste 14 Nordeste 0 -- -- 55
2020-06-22 18:00:00 29.2 4 Sudeste 13 Sudeste 0 -- -- 48
2020-06-22 17:00:00 28.6 4 Este 13 Sudeste 0 -- -- 47
2020-06-22 16:00:00 28.4 4 Sudeste 13 Sudeste 0 -- -- 42
2020-06-22 15:00:00 27.2 4 Sur 12 Sur 0 -- -- 45
2020-06-22 14:00:00 26.5 2 Sur 10 Sur 0 -- -- 48
2020-06-22 13:00:00 25.2 3 Sudoeste 10 Sur 0 -- -- 54
2020-06-22 12:00:00 23.3 4 Sudoeste 11 Sudeste 0 -- -- 59
2020-06-22 11:00:00 20.8 3 Sudeste 10 Sudeste 0 -- -- 71
2020-06-22 10:00:00 18.5 3 Este 8 Este 0 -- -- 79
2020-06-22 09:00:00 16.2 0 Calma 3 Sur 0 -- -- 92
2020-06-22 08:00:00 15.1 0 Calma 4 Sur 0 -- -- 95
2020-06-22 07:00:00 14.5 0 Calma 3 Sur 0 -- -- 94
2020-06-22 06:00:00 14.2 2 Sudeste 4 Sudeste 0 -- -- 92
2020-06-22 05:00:00 15.1 0 Calma 3 Sudeste 0 -- -- 89
2020-06-22 04:00:00 16.5 0 Calma 4 Sur 0 -- -- 87
2020-06-22 03:00:00 17 0 Calma 6 Sur 0 -- -- 83
2020-06-22 02:00:00 17.5 0 Calma -- -- 0 -- -- 82
2020-06-22 01:00:00 17.9 0 Calma 5 Sur 0 -- -- 79
2020-06-22 00:00:00 18.3 0 Calma 5 Sudeste 0 -- -- 76
2020-06-21 23:00:00 18.6 0 Calma 8 Sudoeste 0 -- -- 74
2020-06-21 22:00:00 19.3 2 Sudeste 12 Nordeste 0 -- -- 70
2020-06-21 21:00:00 19.9 4 Este 11 Nordeste 0 -- -- 66
2020-06-21 20:00:00 21.6 4 Nordeste 15 Este 0 -- -- 61
2020-06-21 19:00:00 23 5 Este 18 Nordeste 0 -- -- 56
2020-06-21 18:00:00 24.8 5 Noroeste 15 Sudeste 0 -- -- 53
2020-06-21 17:00:00 25.2 6 Este 17 Sudeste 0 -- -- 48
2020-06-21 16:00:00 26.3 5 Este 18 Nordeste 0 -- -- 46
2020-06-21 15:00:00 26.1 5 Sudeste 15 Sudeste 0 -- -- 53
2020-06-21 14:00:00 25.6 5 Este 14 Sudeste 0 -- -- 48
2020-06-21 13:00:00 25.5 3 Este 9 Este 0 -- -- 52
2020-06-21 12:00:00 23.7 2 Noroeste 9 Norte 0 -- -- 56
2020-06-21 11:00:00 21 3 Norte 9 Noroeste 0 -- -- 59
2020-06-21 10:00:00 16.8 0 Calma -- -- 0 -- -- 78
2020-06-21 09:00:00 12.2 0 Calma -- -- 0 -- -- 97
2020-06-21 08:00:00 10.6 0 Calma -- -- 0 -- -- 96
2020-06-21 07:00:00 10.2 0 Calma -- -- 0 -- -- 95
2020-06-21 06:00:00 10.6 0 Calma -- -- 0 -- -- 94
2020-06-21 05:00:00 11 0 Calma -- -- 0 -- -- 93
2020-06-21 04:00:00 11.4 0 Calma 6 Sur 0 -- -- 93
2020-06-21 03:00:00 11.6 3 Sur 8 Sur 0 -- -- 92
2020-06-21 02:00:00 12.2 0 Calma 6 Sur 0 -- -- 90
2020-06-21 01:00:00 13 2 Sur 6 Sur 0 -- -- 87
2020-06-21 00:00:00 14.2 0 Calma 6 Sudoeste 0 -- -- 84
2020-06-20 23:00:00 15.9 2 Sudoeste 10 Sur 0 -- -- 76
2020-06-20 22:00:00 18 3 Sudoeste 6 Sur 0 -- -- 70
2020-06-20 21:00:00 20.5 3 Este 11 Este 0 -- -- 56
2020-06-20 20:00:00 22.3 3 Nordeste 13 Este 0 -- -- 52
2020-06-20 19:00:00 23.9 5 Este 14 Este 0 -- -- 53
2020-06-20 18:00:00 26.2 3 Este 19 Este 0 -- -- 53
2020-06-20 17:00:00 26.8 4 Este 17 Este 0 -- -- 53
2020-06-20 16:00:00 27 4 Sudeste 13 Nordeste 0 -- -- 47
2020-06-20 15:00:00 26.1 4 Este 13 Este 0 -- -- 49
2020-06-20 14:00:00 25.2 2 Nordeste 9 Sudeste 0 -- -- 46
2020-06-20 13:00:00 23.5 5 Sudoeste 10 Sudeste 0 -- -- 51
2020-06-20 12:00:00 22 3 Norte 8 Norte 0 -- -- 57
2020-06-20 11:00:00 19 3 Norte 6 Norte 0 -- -- 68
2020-06-20 10:00:00 15 2 Oeste 4 Oeste 0 -- -- 92
2020-06-20 09:00:00 11 0 Calma -- -- 0 -- -- 98
2020-06-20 08:00:00 9.5 0 Calma 5 Sudoeste 0 -- -- 97
2020-06-20 07:00:00 9.1 3 Sur 4 Sur 0 -- -- 97
2020-06-20 06:00:00 9.2 3 Sudoeste 6 Sur 0 -- -- 96
2020-06-20 05:00:00 9.5 0 Calma 4 Sur 0 -- -- 95
2020-06-20 04:00:00 10 0 Calma 7 Sur 0 -- -- 94
2020-06-20 03:00:00 10.4 2 Sur 6 Sur 0 -- -- 93
2020-06-20 02:00:00 11.1 2 Sur 6 Sur 0 -- -- 92
2020-06-20 01:00:00 12.1 0 Calma 10 Sur 0 -- -- 90
2020-06-20 00:00:00 13.3 5 Sur 10 Sur 0 -- -- 88
2020-06-19 23:00:00 14.6 0 Calma 3 Este 0 -- -- 85
2020-06-19 22:00:00 15.7 0 Calma 8 Este 0 -- -- 80
2020-06-19 21:00:00 17 4 Este 12 Sudeste 0 -- -- 73
2020-06-19 20:00:00 17.4 4 Sudeste 14 Sudeste 0 -- -- 74
2020-06-19 19:00:00 18 4 Sudeste 13 Sur 0 -- -- 74
2020-06-19 18:00:00 18.9 3 Sudeste 12 Sudeste 0 -- -- 73
2020-06-19 17:00:00 19.9 4 Sudeste 14 Sudeste 0 -- -- 70
2020-06-19 16:00:00 20.6 6 Este 14 Sudeste 0 -- -- 66
2020-06-19 15:00:00 20.6 5 Este 11 Sur 0 -- -- 66
2020-06-19 14:00:00 19.5 3 Sudeste 9 Este 0 -- -- 68
2020-06-19 13:00:00 19.4 3 Nordeste 13 Norte 0 -- -- 67
2020-06-19 12:00:00 18.2 4 Nordeste 10 Norte 0 -- -- 70
2020-06-19 11:00:00 17.8 4 Norte 8 Noroeste 0 -- -- 71
2020-06-19 10:00:00 14.1 3 Norte 8 Norte 0 -- -- 91
2020-06-19 09:00:00 10.9 0 Calma 2 Sur 0 -- -- 98
2020-06-19 08:00:00 9.4 0 Calma 3 Sur 0 -- -- 97
2020-06-19 07:00:00 9.1 0 Calma 5 Sur 0 -- -- 95
2020-06-19 06:00:00 9.6 0 Calma -- -- 0 -- -- 94
2020-06-19 05:00:00 10.3 0 Calma -- -- 0 -- -- 94
2020-06-19 04:00:00 11 0 Calma 5 Sudeste 0 -- -- 94
2020-06-19 03:00:00 11.4 3 Sur 6 Sur 0 -- -- 93
2020-06-19 02:00:00 11.6 0 Calma -- -- 0 -- -- 92
2020-06-19 01:00:00 12.2 0 Calma -- -- 0 -- -- 90
2020-06-19 00:00:00 12.7 0 Calma 8 Sur 0 -- -- 89
2020-06-18 23:00:00 13 0 Calma 8 Sur 0 -- -- 86
2020-06-18 22:00:00 14.4 4 Sudoeste 7 Sudoeste 0 -- -- 81
2020-06-18 21:00:00 16.3 0 Calma 12 Nordeste 0 -- -- 70
2020-06-18 20:00:00 17.6 3 Sudeste 18 Sur 0 -- -- 69
2020-06-18 19:00:00 18.1 5 Sudeste 18 Sudeste 0 -- -- 68
2020-06-18 18:00:00 19.1 5 Este 23 Sudeste 0.2 -- -- 67
2020-06-18 17:00:00 19.9 4 Sur 17 Este 0 -- -- 66
2020-06-18 16:00:00 18.9 3 Sudeste 12 Sudeste 0 -- -- 69
2020-06-18 15:00:00 20.8 5 Sudeste 19 Sur 0 -- -- 67
2020-06-18 14:00:00 18.2 3 Este 9 Este 0 -- -- 73
2020-06-18 13:00:00 17.5 3 Sudeste 6 Este 0 -- -- 74
2020-06-18 12:00:00 17.6 3 Sudoeste 8 Sudoeste 0 -- -- 69
2020-06-18 11:00:00 15.1 0 Calma -- -- 0 -- -- 85
2020-06-18 10:00:00 13.5 0 Calma -- -- 0 -- -- 96
2020-06-18 09:00:00 12.8 0 Calma -- -- 0 -- -- 98
2020-06-18 08:00:00 12.1 0 Calma -- -- 0 -- -- 98
2020-06-18 07:00:00 11.9 0 Calma -- -- 0 -- -- 98
2020-06-18 06:00:00 12 0 Calma -- -- 0 -- -- 98
2020-06-18 05:00:00 12.2 0 Calma -- -- 1.2 -- -- 98
2020-06-18 04:00:00 12.3 0 Calma -- -- 1.8 -- -- 97
2020-06-18 03:00:00 12.4 0 Calma 4 Sur 0.2 -- -- 97
2020-06-18 02:00:00 12.3 0 Calma 4 Sudoeste 0 -- -- 96
2020-06-18 01:00:00 12.4 2 Sur 7 Sudoeste 0 -- -- 95
2020-06-18 00:00:00 12.7 2 Sudoeste 9 Sur 0.2 -- -- 93
2020-06-17 23:00:00 13.2 3 Sudoeste 8 Sur 0 -- -- 92
2020-06-17 22:00:00 13.8 5 Sudoeste 8 Sur 0 -- -- 92
2020-06-17 21:00:00 14.7 3 Sudoeste 9 Sur 0 -- -- 90
2020-06-17 20:00:00 15.3 3 Sur 10 Sudeste 0 -- -- 84
2020-06-17 19:00:00 15.3 2 Sur 9 Sudoeste 0 -- -- 89
2020-06-17 18:00:00 15.8 4 Sur 13 Oeste 0.8 -- -- 85
2020-06-17 17:00:00 16.5 5 Sudoeste 10 Sur 0 -- -- 81
2020-06-17 16:00:00 18.9 4 Sudeste 14 Sudeste 0 -- -- 67
2020-06-17 15:00:00 18.1 3 Nordeste 22 Este 0 -- -- 68
2020-06-17 14:00:00 20.2 4 Noroeste 14 Oeste 0 -- -- 60
2020-06-17 13:00:00 17.8 10 Noroeste 18 Norte 0 -- -- 67
2020-06-17 12:00:00 17.7 5 Nordeste 14 Este 0.2 -- -- 66
2020-06-17 11:00:00 16.8 3 Noroeste 8 Noroeste 0 -- -- 68
2020-06-17 10:00:00 13.4 0 Calma 4 Sudoeste 0 -- -- 98
2020-06-17 09:00:00 12 0 Calma 4 Oeste 0 -- -- 99
2020-06-17 08:00:00 11 0 Calma 4 Sur 0 -- -- 98
2020-06-17 07:00:00 11.3 0 Calma 5 Sur 0 -- -- 98
2020-06-17 06:00:00 11.5 0 Calma 7 Sur 0 -- -- 98
2020-06-17 05:00:00 11.5 2 Sudoeste 7 Sur 0 -- -- 97
2020-06-17 04:00:00 11.7 0 Calma 8 Sur 0 -- -- 97
2020-06-17 03:00:00 12.1 0 Calma 8 Sur 0 -- -- 97
2020-06-17 02:00:00 12.5 0 Calma 6 Sudeste 0 -- -- 96
2020-06-17 01:00:00 12.6 2 Sur 9 Sur 0 -- -- 96
2020-06-17 00:00:00 12.8 2 Sur 8 Sur 0 -- -- 95
2020-06-16 23:00:00 12.9 4 Sur 8 Sudoeste 0 -- -- 95
2020-06-16 22:00:00 13.4 2 Sur 8 Sur 0 -- -- 94
2020-06-16 21:00:00 13.9 2 Sudoeste 8 Sudoeste 0 -- -- 93
2020-06-16 20:00:00 14.6 0 Calma 9 Sudoeste 0 -- -- 92
2020-06-16 19:00:00 14.5 4 Sudoeste 10 Sudoeste 0 -- -- 94
2020-06-16 18:00:00 14.1 0 Calma 9 Norte 0.4 -- -- 93
2020-06-16 17:00:00 14.8 2 Oeste 9 Sudoeste 0 -- -- 91
2020-06-16 16:00:00 14.3 3 Sudoeste 8 Sudeste 1.2 -- -- 93
2020-06-16 15:00:00 14.6 0 Calma 11 Sudeste 0.2 -- -- 91
2020-06-16 14:00:00 15.2 6 Sudoeste 14 Sudoeste 3.2 -- -- 90
2020-06-16 13:00:00 16.6 6 Oeste 13 Noroeste 3.2 -- -- 82
2020-06-16 12:00:00 19.3 2 Noroeste 9 Nordeste 0 -- -- 65
2020-06-16 11:00:00 17.4 3 Noroeste 7 Sudoeste 0 -- -- 77
2020-06-16 10:00:00 14.3 3 Noroeste 6 Noroeste 0 -- -- 93
2020-06-16 09:00:00 13.1 2 Noroeste 10 Norte 0 -- -- 94
2020-06-16 08:00:00 12.8 2 Sur 5 Sur 0 -- -- 95
2020-06-16 07:00:00 12.6 0 Calma 3 Sur 0 -- -- 94
2020-06-16 06:00:00 12.7 0 Calma 4 Noroeste 0 -- -- 93
2020-06-16 05:00:00 13.1 0 Calma 4 Este 0 -- -- 92
2020-06-16 04:00:00 13.3 0 Calma 5 Sudeste 0 -- -- 90
2020-06-16 03:00:00 13.4 0 Calma 7 Noroeste 0 -- -- 89
2020-06-16 02:00:00 13.5 0 Calma 4 Sur 0 -- -- 87
2020-06-16 01:00:00 13.8 0 Calma 4 Sur 0 -- -- 86
2020-06-16 00:00:00 14.4 0 Calma 5 Sudeste 0 -- -- 81
2020-06-15 23:00:00 15 0 Calma 9 Este 0 -- -- 77
2020-06-15 22:00:00 15.6 4 Sudeste 13 Nordeste 0 -- -- 73
2020-06-15 21:00:00 16.6 4 Sur 16 Sur 0 -- -- 68
2020-06-15 20:00:00 17.6 4 Sudoeste 17 Este 0 -- -- 64
2020-06-15 19:00:00 19.1 4 Sudeste 14 Nordeste 0 -- -- 59
2020-06-15 18:00:00 20.8 6 Este 16 Este 0 -- -- 56
2020-06-15 17:00:00 20.7 5 Este 18 Este 0 -- -- 55
2020-06-15 16:00:00 21.1 3 Sur 12 Sudeste 0 -- -- 54
2020-06-15 15:00:00 20.9 4 Sur 11 Sur 0 -- -- 60
2020-06-15 14:00:00 20.9 4 Sur 17 Norte 0 -- -- 66
2020-06-15 13:00:00 18.7 3 Noroeste 13 Este 0 -- -- 66
2020-06-15 12:00:00 18.6 0 Calma 9 Norte 0 -- -- 71
2020-06-15 11:00:00 17.7 2 Nordeste 8 Norte 0 -- -- 73
2020-06-15 10:00:00 15.7 3 Norte 8 Norte 0 -- -- 81
2020-06-15 09:00:00 13.9 0 Calma 3 Sur 0 -- -- 94
2020-06-15 08:00:00 12.9 0 Calma 4 Sudoeste 0 -- -- 96
2020-06-15 07:00:00 12.6 0 Calma 3 Sudoeste 0 -- -- 95
2020-06-15 06:00:00 12.7 0 Calma 3 Sudoeste 0 -- -- 94
2020-06-15 05:00:00 12.9 0 Calma 5 Sur 0 -- -- 93
2020-06-15 04:00:00 13.1 0 Calma 4 Sur 0 -- -- 91
2020-06-15 03:00:00 13.2 0 Calma 5 Sur 0 -- -- 89
2020-06-15 02:00:00 13.2 0 Calma 5 Sur 0 -- -- 88
2020-06-15 01:00:00 13.4 0 Calma 8 Sur 0 -- -- 86
2020-06-15 00:00:00 13.6 0 Calma 4 Sur 0 -- -- 82
2020-06-14 23:00:00 14.6 2 Sur 10 Sur 0 -- -- 76
2020-06-14 22:00:00 15.5 3 Sudoeste 8 Sur 0 -- -- 70
2020-06-14 21:00:00 16.6 2 Sur 12 Este 0 -- -- 62
2020-06-14 20:00:00 17.9 4 Sudeste 11 Sudeste 0 -- -- 58
2020-06-14 19:00:00 19.5 4 Este 14 Sudeste 0 -- -- 55
2020-06-14 18:00:00 20.4 3 Sudeste 13 Este 0 -- -- 56
2020-06-14 17:00:00 20.3 5 Sudoeste 17 Sur 0 -- -- 56
2020-06-14 16:00:00 20 4 Nordeste 22 Este 0 -- -- 55
2020-06-14 15:00:00 22 4 Nordeste 15 Norte 0 -- -- 52
2020-06-14 14:00:00 21.1 3 Este 15 Norte 0 -- -- 52
2020-06-14 13:00:00 20.9 4 Nordeste 15 Este 0 -- -- 55
2020-06-14 12:00:00 19 3 Nordeste 14 Norte 0 -- -- 60
2020-06-14 11:00:00 17.1 4 Nordeste 12 Nordeste 0 -- -- 70
2020-06-14 10:00:00 14.6 0 Calma 5 Norte 0 -- -- 89
2020-06-14 09:00:00 11.7 2 Norte 8 Sur 0 -- -- 98
2020-06-14 08:00:00 10.5 2 Sudoeste 10 Sur 0 -- -- 97
2020-06-14 07:00:00 10.5 3 Sudoeste 9 Sur 0 -- -- 97
2020-06-14 06:00:00 10.9 3 Sur 8 Sur 0 -- -- 97
2020-06-14 05:00:00 11.3 0 Calma 0 Calma 0 -- -- 97
2020-06-14 04:00:00 12 0 Calma -- -- 0 -- -- 97
2020-06-14 03:00:00 12 0 Calma 0 Calma 0 -- -- 97
2020-06-14 02:00:00 12 0 Calma 5 Sudoeste 0 -- -- 97
2020-06-14 01:00:00 12.1 0 Calma 7 Sur 0 -- -- 96
2020-06-14 00:00:00 12.2 0 Calma 8 Sur 0 -- -- 95
2020-06-13 23:00:00 12.5 4 Sudoeste 10 Sur 0 -- -- 94
2020-06-13 22:00:00 13.3 3 Sudoeste 6 Sudoeste 0 -- -- 93
2020-06-13 21:00:00 14.1 4 Sur 9 Sur 0.4 -- -- 92
2020-06-13 20:00:00 14.6 0 Calma 7 Sur 0.2 -- -- 90
2020-06-13 19:00:00 15.6 3 Sur 8 Sur 0.6 -- -- 83
2020-06-13 18:00:00 16.9 4 Sudoeste 15 Sudoeste 0 -- -- 72
2020-06-13 17:00:00 19.7 6 Sur 19 Sudeste 0 -- -- 65
2020-06-13 16:00:00 19.9 3 Sudeste 9 Sur 0 -- -- 62
2020-06-13 15:00:00 20.2 2 Este 7 Este 0 -- -- 56
2020-06-13 14:00:00 20.7 2 Sudeste 10 Noroeste 0 -- -- 53
2020-06-13 13:00:00 18.2 0 Calma 9 Nordeste 0 -- -- 64
2020-06-13 12:00:00 16.6 3 Este 9 Nordeste 0 -- -- 72
2020-06-13 11:00:00 14.2 3 Norte 6 Nordeste 0 -- -- 98
2020-06-13 10:00:00 12.3 0 Calma 5 Noroeste 0 -- -- 100
2020-06-13 09:00:00 11.3 0 Calma 7 Sudeste 0 -- -- 99
2020-06-13 08:00:00 10.7 3 Nordeste 7 Sur 0 -- -- 99
2020-06-13 07:00:00 10.2 0 Calma 6 Norte 0 -- -- 99
2020-06-13 06:00:00 9.9 0 Calma 5 Sur 0 -- -- 99
2020-06-13 05:00:00 9.6 0 Calma 6 Sur 0 -- -- 99
2020-06-13 04:00:00 9.4 0 Calma 4 Oeste 0.2 -- -- 98
2020-06-13 03:00:00 9.2 0 Calma 5 Nordeste 0 -- -- 98
2020-06-13 02:00:00 9.4 2 Este 8 Sudoeste 0 -- -- 97
2020-06-13 01:00:00 9.6 0 Calma 6 Norte 0 -- -- 96
2020-06-13 00:00:00 10.2 0 Calma 9 Sudoeste 0 -- -- 94
2020-06-12 23:00:00 11.1 0 Calma 4 Sudoeste 0 -- -- 93
2020-06-12 22:00:00 11.7 3 Sudoeste 8 Oeste 0 -- -- 91
2020-06-12 21:00:00 13 3 Sudoeste 7 Sudoeste 0 -- -- 90
2020-06-12 20:00:00 13.2 4 Sudoeste 9 Norte 0.4 -- -- 92
2020-06-12 19:00:00 13.6 2 Sur 14 Sur 0 -- -- 86
2020-06-12 18:00:00 14.8 0 Calma 12 Sudeste 0.8 -- -- 86
2020-06-12 17:00:00 16.2 0 Calma 8 Nordeste 0.2 -- -- 73
2020-06-12 16:00:00 17.5 3 Este 14 Nordeste 0 -- -- 63
2020-06-12 15:00:00 20.5 6 Este 22 Este 0 -- -- 55
2020-06-12 14:00:00 20.1 4 Este 14 Este 0 -- -- 46
2020-06-12 13:00:00 18.4 3 Nordeste 15 Nordeste 0 -- -- 50
2020-06-12 12:00:00 18.7 4 Nordeste 19 Nordeste 0 -- -- 50
2020-06-12 11:00:00 15.6 3 Noroeste 28 Sudoeste 0 -- -- 63
2020-06-12 10:00:00 15.3 4 Sudoeste 18 Sudoeste 0 -- -- 63
2020-06-12 09:00:00 13.1 4 Noroeste 25 Sudoeste 0 -- -- 71
2020-06-12 08:00:00 12.2 9 Oeste 30 Oeste 0 -- -- 70
2020-06-12 07:00:00 12 10 Oeste 41 Oeste 0 -- -- 67
2020-06-12 06:00:00 11.2 12 Oeste 33 Sudoeste 0 -- -- 71
2020-06-12 05:00:00 9.8 9 Oeste 29 Sudoeste 0 -- -- 86
2020-06-12 04:00:00 8 4 Sudoeste 20 Sur 0 -- -- 98
2020-06-12 03:00:00 6.8 5 Oeste 18 Noroeste 0 -- -- 98
2020-06-12 02:00:00 6.8 3 Sudoeste 8 Oeste 0 -- -- 96
2020-06-12 01:00:00 7.7 0 Calma 9 Sur 0 -- -- 96
2020-06-12 00:00:00 8.8 2 Sudoeste 11 Sur 0.2 -- -- 96
2020-06-11 23:00:00 10 5 Sudoeste 9 Sur 0.6 -- -- 96
2020-06-11 22:00:00 10.4 0 Calma 8 Sur 0.2 -- -- 96
2020-06-11 21:00:00 10.7 3 Sudoeste 8 Noroeste 2.6 -- -- 96
2020-06-11 20:00:00 11.1 0 Calma 7 Oeste 1.2 -- -- 95
2020-06-11 19:00:00 11.2 0 Calma 7 Sudoeste 4 -- -- 94
2020-06-11 18:00:00 11.5 5 Sudoeste 12 Sudoeste 2 -- -- 91
2020-06-11 17:00:00 12.1 4 Sudoeste 10 Sudoeste 0.6 -- -- 90
2020-06-11 16:00:00 11.5 4 Oeste 29 Norte 3.2 -- -- 91
2020-06-11 15:00:00 13 9 Noroeste 26 Norte 2.8 -- -- 89
2020-06-11 14:00:00 15.1 11 Norte 26 Nordeste 2.4 -- -- 84
2020-06-11 13:00:00 19.5 4 Sur 13 Sur 0 -- -- 67
2020-06-11 12:00:00 16.8 3 Sudeste 8 Sur 0 -- -- 79
2020-06-11 11:00:00 14.8 0 Calma 8 Oeste 0 -- -- 89
2020-06-11 10:00:00 13.5 0 Calma -- -- 0 -- -- 94
2020-06-11 09:00:00 12.8 0 Calma -- -- 0 -- -- 98
2020-06-11 08:00:00 12.1 0 Calma -- -- 0.2 -- -- 98
2020-06-11 07:00:00 11.7 0 Calma -- -- 0.2 -- -- 97
2020-06-11 06:00:00 11.7 0 Calma -- -- 0 -- -- 96
2020-06-11 05:00:00 11.9 0 Calma 5 Sur 0 -- -- 95
2020-06-11 04:00:00 12.2 0 Calma 5 Sudeste 0 -- -- 95
2020-06-11 03:00:00 12.5 0 Calma 8 Sur 0 -- -- 95
2020-06-11 02:00:00 12.7 0 Calma -- -- 0 -- -- 95
2020-06-11 01:00:00 13 0 Calma 0 Calma 0 -- -- 94
2020-06-11 00:00:00 13.4 0 Calma 5 Oeste 0 -- -- 93
2020-06-10 23:00:00 13.8 0 Calma 4 Sudoeste 0 -- -- 92
2020-06-10 22:00:00 14.1 0 Calma -- -- 0 -- -- 91
2020-06-10 21:00:00 14.5 0 Calma 5 Oeste 0 -- -- 88
2020-06-10 20:00:00 15.6 0 Calma 10 Sur 0 -- -- 82
2020-06-10 19:00:00 16.5 2 Sudeste 9 Sudeste 0 -- -- 74
2020-06-10 18:00:00 16.9 3 Este 9 Sur 0 -- -- 70
2020-06-10 17:00:00 17.3 2 Sudeste 12 Sur 0 -- -- 71
2020-06-10 16:00:00 17.5 0 Calma 14 Sudeste 0 -- -- 68
2020-06-10 15:00:00 18.4 3 Este 14 Sudeste 0 -- -- 63
2020-06-10 14:00:00 18.5 4 Nordeste 9 Nordeste 0 -- -- 60
2020-06-10 13:00:00 17.7 4 Noroeste 8 Norte 0 -- -- 64
2020-06-10 12:00:00 16.7 0 Calma 7 Norte 0 -- -- 69
2020-06-10 11:00:00 15.5 0 Calma 4 Este 0 -- -- 72
2020-06-10 10:00:00 13.4 0 Calma 3 Sudeste 0 -- -- 85
2020-06-10 09:00:00 11.7 0 Calma 4 Oeste 0 -- -- 97
2020-06-10 08:00:00 10.6 0 Calma 3 Sur 0 -- -- 97
2020-06-10 07:00:00 10.5 0 Calma 4 Sur 0 -- -- 96
2020-06-10 06:00:00 10.6 0 Calma -- -- 0 -- -- 97
2020-06-10 05:00:00 10.8 0 Calma -- -- 0 -- -- 97
2020-06-10 04:00:00 10.7 0 Calma 5 Sudeste 0 -- -- 96
2020-06-10 03:00:00 10.6 0 Calma -- -- 0 -- -- 95
2020-06-10 02:00:00 10.5 0 Calma 4 Sudoeste 0 -- -- 93
2020-06-10 01:00:00 10.7 2 Sur 6 Sudoeste 0 -- -- 91
2020-06-10 00:00:00 11.6 3 Sur 10 Sur 0 -- -- 88
2020-06-09 23:00:00 13.1 0 Calma -- -- 0 -- -- 87
2020-06-09 22:00:00 14 0 Calma 4 Sudoeste 0 -- -- 83
2020-06-09 21:00:00 14.9 0 Calma 6 Sudoeste 0 -- -- 79
2020-06-09 20:00:00 15.3 0 Calma 10 Sur 0 -- -- 70
2020-06-09 19:00:00 16.3 2 Este 9 Este 0 -- -- 65
2020-06-09 18:00:00 16.9 3 Sur 15 Noroeste 0 -- -- 64
2020-06-09 17:00:00 15.6 4 Nordeste 13 Noroeste 0 -- -- 71
2020-06-09 16:00:00 16.1 4 Norte 15 Norte 0 -- -- 69
2020-06-09 15:00:00 14.6 5 Sudoeste 11 Sudoeste 0 -- -- 80
2020-06-09 14:00:00 14.6 3 Sudeste 13 Sudeste 0 -- -- 73
2020-06-09 13:00:00 14.3 3 Sudoeste 9 Sur 0 -- -- 76
2020-06-09 12:00:00 14.4 3 Noroeste 12 Norte 0 -- -- 72
2020-06-09 11:00:00 13.8 3 Norte 13 Norte 0 -- -- 85
2020-06-09 10:00:00 13 2 Norte 8 Noroeste 0 -- -- 95
2020-06-09 09:00:00 11.4 0 Calma -- -- 0 -- -- 99
2020-06-09 08:00:00 10.7 0 Calma -- -- 0 -- -- 99
2020-06-09 07:00:00 10.3 0 Calma 5 Sudeste 0 -- -- 98
2020-06-09 06:00:00 10.2 0 Calma -- -- 0.2 -- -- 98
2020-06-09 05:00:00 10.1 0 Calma -- -- 0 -- -- 97
2020-06-09 04:00:00 10.1 0 Calma 4 Sur 0 -- -- 97
2020-06-09 03:00:00 10.7 0 Calma 4 Sur 0 -- -- 97
2020-06-09 02:00:00 11.1 0 Calma 7 Sur 0 -- -- 96
2020-06-09 01:00:00 11.3 0 Calma 7 Sur 0.4 -- -- 95
2020-06-09 00:00:00 11.4 3 Sur 9 Sur 0.2 -- -- 94
2020-06-08 23:00:00 11.6 2 Sur 10 Sur 0 -- -- 94
2020-06-08 22:00:00 12.2 0 Calma 11 Sudoeste 0 -- -- 92
2020-06-08 21:00:00 13 4 Sudoeste 12 Sudoeste 0.2 -- -- 90
2020-06-08 20:00:00 13.5 3 Nordeste 14 Nordeste 0.2 -- -- 81
2020-06-08 19:00:00 14.3 6 Este 21 Norte 0 -- -- 77
2020-06-08 18:00:00 16.5 5 Norte 18 Noroeste 0 -- -- 74
2020-06-08 17:00:00 13.6 0 Calma 16 Noroeste 0 -- -- 89
2020-06-08 16:00:00 13.6 2 Noroeste 21 Norte 1 -- -- 90
2020-06-08 15:00:00 14.7 0 Calma 20 Norte 0 -- -- 77
2020-06-08 14:00:00 15.6 6 Norte 22 Norte 0 -- -- 75
2020-06-08 13:00:00 15.4 6 Nordeste 22 Noroeste 0 -- -- 80
2020-06-08 12:00:00 14.4 4 Norte 13 Norte 0 -- -- 86
2020-06-08 11:00:00 13 4 Norte 14 Este 0.6 -- -- 91
2020-06-08 10:00:00 13.1 3 Nordeste 11 Norte 0 -- -- 80
2020-06-08 09:00:00 11.5 3 Sudoeste 8 Sur 0 -- -- 96
2020-06-08 08:00:00 10.2 0 Calma 5 Sudoeste 0 -- -- 98
2020-06-08 07:00:00 9.8 0 Calma 0 Calma 0 -- -- 97
2020-06-08 06:00:00 10 0 Calma 0 Calma 0 -- -- 97
2020-06-08 05:00:00 10.1 0 Calma 0 Calma 0 -- -- 97
2020-06-08 04:00:00 10.1 0 Calma 0 Calma 0 -- -- 97
2020-06-08 03:00:00 10.1 0 Calma -- -- 0.2 -- -- 96
2020-06-08 02:00:00 10.2 0 Calma -- -- 0 -- -- 95
2020-06-08 01:00:00 10.1 0 Calma 4 Sur 0 -- -- 94
2020-06-08 00:00:00 10.5 0 Calma 8 Sur 0 -- -- 92
2020-06-07 23:00:00 10.7 0 Calma 7 Sur 0 -- -- 90
2020-06-07 22:00:00 11.7 3 Sudoeste 8 Este 0 -- -- 84
2020-06-07 21:00:00 13.1 0 Calma 11 Este 0 -- -- 69
2020-06-07 20:00:00 13.8 3 Sudeste 13 Este 0 -- -- 69
2020-06-07 19:00:00 14.4 3 Sudeste 16 Norte 0 -- -- 68
2020-06-07 18:00:00 14.3 2 Nordeste 9 Este 0 -- -- 76
2020-06-07 17:00:00 14.1 0 Calma 13 Nordeste 0 -- -- 73
2020-06-07 16:00:00 14.2 3 Norte 12 Norte 0 -- -- 72
2020-06-07 15:00:00 13.7 3 Este 8 Nordeste 0 -- -- 80
2020-06-07 14:00:00 13.7 3 Noroeste 7 Sudoeste 0 -- -- 78
2020-06-07 13:00:00 13.4 3 Sudoeste 7 Oeste 0 -- -- 87
2020-06-07 12:00:00 12.1 0 Calma 9 Norte 0.2 -- -- 95
2020-06-07 11:00:00 11.4 0 Calma 5 Sudoeste 0 -- -- 96
2020-06-07 10:00:00 11.2 0 Calma 8 Sur 0 -- -- 97
2020-06-07 09:00:00 10.7 4 Sudoeste 6 Sudoeste 0.2 -- -- 97
2020-06-07 08:00:00 10.5 2 Norte 15 Este 0.8 -- -- 97
2020-06-07 07:00:00 10.9 0 Calma 4 Sudoeste 1.2 -- -- 97
2020-06-07 06:00:00 11 0 Calma 8 Sur 0 -- -- 96
2020-06-07 05:00:00 11.2 4 Sudoeste 17 Sudeste 0.4 -- -- 95
2020-06-07 04:00:00 12.1 0 Calma 6 Nordeste 0.6 -- -- 96
2020-06-07 03:00:00 12.4 2 Noroeste 12 Este 0.2 -- -- 96
2020-06-07 02:00:00 12.6 5 Noroeste 12 Noroeste 0.2 -- -- 95
2020-06-07 01:00:00 13.2 4 Nordeste 17 Nordeste 0.6 -- -- 96
2020-06-07 00:00:00 13.8 0 Calma 4 Sudoeste 0 -- -- 97
2020-06-06 23:00:00 13.9 0 Calma 6 Sur 0 -- -- 96
2020-06-06 22:00:00 14.2 0 Calma 4 Sudoeste 0.2 -- -- 96
2020-06-06 21:00:00 14.5 0 Calma 6 Sudoeste 0.6 -- -- 95
2020-06-06 20:00:00 14.7 3 Sudoeste 6 Sur 3 -- -- 94
2020-06-06 19:00:00 14.8 0 Calma 12 Oeste 0.2 -- -- 92
2020-06-06 18:00:00 15.4 2 Sudeste 11 Sudeste 0 -- -- 89
2020-06-06 17:00:00 15.9 2 Sudeste 8 Sudeste 0 -- -- 86
2020-06-06 16:00:00 16.6 3 Este 12 Sudeste 0 -- -- 82
2020-06-06 15:00:00 17.1 3 Sur 14 Sudeste 0 -- -- 77
2020-06-06 14:00:00 17.5 3 Sudeste 8 Sudoeste 0 -- -- 79
2020-06-06 13:00:00 17.7 3 Sudeste 9 Sudeste 0 -- -- 78
2020-06-06 12:00:00 17.9 3 Este 10 Este 0 -- -- 77
2020-06-06 11:00:00 17.8 3 Nordeste 7 Norte 0 -- -- 76
2020-06-06 10:00:00 16.7 2 Norte 5 Norte 0 -- -- 82
2020-06-06 09:00:00 15 0 Calma 4 Norte 0 -- -- 89
2020-06-06 08:00:00 14.2 0 Calma 5 Sur 0 -- -- 94
2020-06-06 07:00:00 13.9 0 Calma 4 Oeste 0 -- -- 93
2020-06-06 06:00:00 14 0 Calma 7 Noroeste 0 -- -- 92
2020-06-06 05:00:00 14.4 0 Calma 5 Sudoeste 0 -- -- 91
2020-06-06 04:00:00 14.5 3 Sur 5 Sur 0 -- -- 91
2020-06-06 03:00:00 14.7 0 Calma 4 Sur 0 -- -- 91
2020-06-06 02:00:00 14.7 2 Sudeste 5 Sudoeste 0 -- -- 90
2020-06-06 01:00:00 14.9 0 Calma 5 Sudeste 0 -- -- 88
2020-06-06 00:00:00 15.1 0 Calma 5 Sur 0 -- -- 85
2020-06-05 23:00:00 15.4 3 Sur 7 Sur 0 -- -- 84
2020-06-05 22:00:00 15.8 3 Sudeste 11 Sudeste 0 -- -- 82
2020-06-05 21:00:00 16.4 3 Este 10 Sur 0 -- -- 79
2020-06-05 20:00:00 17.3 3 Este 14 Este 0 -- -- 75
2020-06-05 19:00:00 19.3 4 Este 15 Nordeste 0 -- -- 68
2020-06-05 18:00:00 20.4 6 Este 17 Este 0 -- -- 63
2020-06-05 17:00:00 20.2 5 Sudeste 22 Sudeste 0 -- -- 63
2020-06-05 16:00:00 20.7 4 Sudeste 16 Sudeste 0 -- -- 63
2020-06-05 15:00:00 20.7 4 Este 15 Sudeste 0 -- -- 65
2020-06-05 14:00:00 20.6 5 Noroeste 14 Noroeste 0 -- -- 56
2020-06-05 13:00:00 19.5 6 Norte 17 Norte 0 -- -- 65
2020-06-05 12:00:00 16.2 3 Nordeste 8 Nordeste 0 -- -- 77
2020-06-05 11:00:00 14.9 0 Calma 5 Norte 0 -- -- 84
2020-06-05 10:00:00 13.4 0 Calma 6 Sur 0 -- -- 95
2020-06-05 09:00:00 12.6 0 Calma 2 Sudeste 0 -- -- 99
2020-06-05 08:00:00 11.9 0 Calma 6 Sudoeste 0 -- -- 98
2020-06-05 07:00:00 11.8 4 Sudoeste 9 Sudoeste 0 -- -- 98
2020-06-05 06:00:00 11.9 0 Calma 5 Sur 0 -- -- 98
2020-06-05 05:00:00 12.1 0 Calma 6 Sudoeste 0 -- -- 98
2020-06-05 04:00:00 12.2 3 Sur 8 Sur 0 -- -- 98
2020-06-05 03:00:00 12.4 0 Calma 6 Sudoeste 0 -- -- 97
2020-06-05 02:00:00 12.5 0 Calma 5 Sur 0 -- -- 97
2020-06-05 01:00:00 12.9 0 Calma 6 Oeste 0 -- -- 97
2020-06-05 00:00:00 13 2 Sudoeste 8 Sur 0.2 -- -- 97
2020-06-04 23:00:00 13.1 2 Sudoeste 7 Sur 0 -- -- 96
2020-06-04 22:00:00 13.3 0 Calma 6 Este 2.2 -- -- 95
2020-06-04 21:00:00 13.7 2 Norte 6 Noroeste 0.2 -- -- 94
2020-06-04 20:00:00 14.2 3 Norte 17 Norte 0 -- -- 91
2020-06-04 19:00:00 14.6 5 Norte 20 Noroeste 0.4 -- -- 92
2020-06-04 18:00:00 13.6 4 Norte 21 Nordeste 1.6 -- -- 94
2020-06-04 17:00:00 13.8 5 Nordeste 18 Norte 0.2 -- -- 92
2020-06-04 16:00:00 13.9 5 Norte 31 Norte 0.8 -- -- 91
2020-06-04 15:00:00 14.3 3 Noroeste 32 Norte 0.4 -- -- 87
2020-06-04 14:00:00 15.7 9 Norte 28 Nordeste 0 -- -- 75
2020-06-04 13:00:00 15.2 5 Norte 21 Norte 0.4 -- -- 87
2020-06-04 12:00:00 15.1 6 Norte 19 Norte 0 -- -- 82
2020-06-04 11:00:00 14.3 6 Norte 18 Noroeste 0 -- -- 87
2020-06-04 10:00:00 13.2 0 Calma 8 Noroeste 0 -- -- 95
2020-06-04 09:00:00 12.7 4 Noroeste 9 Noroeste 0.2 -- -- 97
2020-06-04 08:00:00 12.7 0 Calma 7 Sudoeste 0.2 -- -- 97
2020-06-04 07:00:00 12.4 3 Sudoeste 7 Sudoeste 0.4 -- -- 95
2020-06-04 06:00:00 12.2 0 Calma 8 Sur 0 -- -- 94
2020-06-04 05:00:00 12.1 0 Calma 8 Sur 0 -- -- 93
2020-06-04 04:00:00 12.9 3 Sur 8 Sur 0 -- -- 92
2020-06-04 03:00:00 13.7 2 Sudeste 9 Sur 0 -- -- 93
2020-06-04 02:00:00 14.3 3 Sur 6 Sudoeste 0 -- -- 92
2020-06-04 01:00:00 14.3 2 Sudoeste 7 Sudoeste 0 -- -- 92
2020-06-04 00:00:00 14.5 0 Calma 9 Sur 0 -- -- 92